Upstream stations:
Downstream station:
SHEF ID: MRIT2 Lake Meredith
STATION TYPE: RESERVOIR
Flood Pool: Bottom = 2941.30, Top = 2965.00
ELEVATION STORAGE INFLOW RELEASE WIND-DIRWIND-SPEED
ft ac-ft cfs cfs deg mph
Ccp-Rev Ccp-Rev Rev-Regi Rev-Regi Ccp-Rev Ccp-Rev
(US/Central)
05/24 00:00 2883.36 202804 0 0 94.00 14.00
05/24 01:00 2883.29 202337 0 0 64.00 9.00
05/24 02:00 2883.26 202137 0 0 67.00 9.00
05/24 03:00 2883.29 202337 0 0 75.00 6.00
05/24 04:00 2883.29 202337 0 0 41.00 4.00
05/24 05:00 2883.28 202271 371 0 64.00 7.00
05/24 06:00 2883.26 202137 371 0 54.00 4.00
05/24 07:00 2883.36 202804 371 0 34.00 3.00
05/24 08:00 2883.35 202738 400 0 7.00 7.00
05/24 09:00 2883.30 202404 428 0 27.00 4.00
05/24 10:00 2883.29 202337 57 0 46.00 3.00
05/24 11:00 2883.31 202471 57 0 311.00 4.00
05/24 12:00 2883.31 202471 57 0 332.00 11.00
05/24 13:00 2883.35 202738 29 0 349.00 14.00
05/24 14:00 2883.38 202938 0 0 346.00 14.00
05/24 15:00 2883.35 202738 0 0 ---- ----
05/24 16:00 2883.38 202938 0 0 ---- ----
05/24 17:00 2883.38 202938 0 0 ---- ----
05/24 18:00 2883.37 202871 0 0 ---- ----
05/24 19:00 2883.38 202938 0 0 ---- ----
05/24 20:00 2883.38 202938 0 0 ---- ----
05/24 21:00 2883.35 202738 0 0 ---- ----
05/24 22:00 2883.34 202671 0 0 ---- ----
05/24 23:00 2883.35 202738 0 0 ---- ----